sensor_id;sensor_type;location;lat;lon;timestamp;temperature;humidity
2783;DHT22;1399;47.072;15.452;2023-04-24T00:00:42;15.00;67.60
2783;DHT22;1399;47.072;15.452;2023-04-24T00:03:07;15.00;67.70
2783;DHT22;1399;47.072;15.452;2023-04-24T00:05:33;15.00;67.60
2783;DHT22;1399;47.072;15.452;2023-04-24T00:07:59;15.00;67.70
2783;DHT22;1399;47.072;15.452;2023-04-24T00:10:25;15.00;67.70
2783;DHT22;1399;47.072;15.452;2023-04-24T00:12:51;14.90;67.60
2783;DHT22;1399;47.072;15.452;2023-04-24T00:15:16;14.90;67.60
2783;DHT22;1399;47.072;15.452;2023-04-24T00:17:42;14.90;67.60
2783;DHT22;1399;47.072;15.452;2023-04-24T00:20:08;14.90;67.70
2783;DHT22;1399;47.072;15.452;2023-04-24T00:22:35;14.90;67.60
2783;DHT22;1399;47.072;15.452;2023-04-24T00:25:01;14.80;67.60
2783;DHT22;1399;47.072;15.452;2023-04-24T00:27:27;14.80;67.60
2783;DHT22;1399;47.072;15.452;2023-04-24T00:29:52;14.80;67.60
2783;DHT22;1399;47.072;15.452;2023-04-24T00:32:18;14.80;67.60
2783;DHT22;1399;47.072;15.452;2023-04-24T00:34:44;14.80;67.60
2783;DHT22;1399;47.072;15.452;2023-04-24T00:37:10;14.70;67.60
2783;DHT22;1399;47.072;15.452;2023-04-24T00:39:37;14.70;67.60
2783;DHT22;1399;47.072;15.452;2023-04-24T00:42:02;14.70;67.60
2783;DHT22;1399;47.072;15.452;2023-04-24T00:44:28;14.70;67.70
2783;DHT22;1399;47.072;15.452;2023-04-24T00:46:55;14.70;67.80
2783;DHT22;1399;47.072;15.452;2023-04-24T00:49:24;14.70;67.80
2783;DHT22;1399;47.072;15.452;2023-04-24T00:51:50;14.60;67.60
2783;DHT22;1399;47.072;15.452;2023-04-24T00:54:17;14.60;67.60
2783;DHT22;1399;47.072;15.452;2023-04-24T00:56:44;14.60;67.60
2783;DHT22;1399;47.072;15.452;2023-04-24T00:59:13;14.60;67.60
2783;DHT22;1399;47.072;15.452;2023-04-24T01:01:41;14.60;67.60
2783;DHT22;1399;47.072;15.452;2023-04-24T01:04:07;14.60;67.50
2783;DHT22;1399;47.072;15.452;2023-04-24T01:06:36;14.60;67.40
2783;DHT22;1399;47.072;15.452;2023-04-24T01:09:02;14.60;67.40
2783;DHT22;1399;47.072;15.452;2023-04-24T01:11:29;14.60;67.30
2783;DHT22;1399;47.072;15.452;2023-04-24T01:13:55;14.60;67.30
2783;DHT22;1399;47.072;15.452;2023-04-24T01:16:21;14.60;67.30
2783;DHT22;1399;47.072;15.452;2023-04-24T01:18:47;14.60;67.20
2783;DHT22;1399;47.072;15.452;2023-04-24T01:21:15;14.60;67.20
2783;DHT22;1399;47.072;15.452;2023-04-24T01:23:43;14.50;67.10
2783;DHT22;1399;47.072;15.452;2023-04-24T01:26:09;14.50;67.00
2783;DHT22;1399;47.072;15.452;2023-04-24T01:28:34;14.50;67.10
2783;DHT22;1399;47.072;15.452;2023-04-24T01:31:01;14.50;67.00
2783;DHT22;1399;47.072;15.452;2023-04-24T01:33:26;14.50;67.10
2783;DHT22;1399;47.072;15.452;2023-04-24T01:35:52;14.50;67.10
2783;DHT22;1399;47.072;15.452;2023-04-24T01:38:18;14.50;67.10
2783;DHT22;1399;47.072;15.452;2023-04-24T01:40:44;14.40;67.00
2783;DHT22;1399;47.072;15.452;2023-04-24T01:43:11;14.40;67.10
2783;DHT22;1399;47.072;15.452;2023-04-24T01:45:36;14.40;67.10
2783;DHT22;1399;47.072;15.452;2023-04-24T01:48:02;14.40;67.10
2783;DHT22;1399;47.072;15.452;2023-04-24T01:50:28;14.40;67.10
2783;DHT22;1399;47.072;15.452;2023-04-24T01:52:54;14.40;67.20
2783;DHT22;1399;47.072;15.452;2023-04-24T01:55:19;14.40;67.10
2783;DHT22;1399;47.072;15.452;2023-04-24T01:57:45;14.40;67.10
2783;DHT22;1399;47.072;15.452;2023-04-24T02:00:11;14.30;67.10
2783;DHT22;1399;47.072;15.452;2023-04-24T02:02:39;14.30;67.00
2783;DHT22;1399;47.072;15.452;2023-04-24T02:05:06;14.30;67.00
2783;DHT22;1399;47.072;15.452;2023-04-24T02:07:32;14.30;67.00
2783;DHT22;1399;47.072;15.452;2023-04-24T02:09:58;14.30;66.90
2783;DHT22;1399;47.072;15.452;2023-04-24T02:12:24;14.30;66.90
2783;DHT22;1399;47.072;15.452;2023-04-24T02:14:50;14.30;66.90
2783;DHT22;1399;47.072;15.452;2023-04-24T02:17:16;14.30;66.80
2783;DHT22;1399;47.072;15.452;2023-04-24T02:19:42;14.30;66.90
2783;DHT22;1399;47.072;15.452;2023-04-24T02:22:08;14.30;66.90
2783;DHT22;1399;47.072;15.452;2023-04-24T02:24:33;14.30;66.90
2783;DHT22;1399;47.072;15.452;2023-04-24T02:26:59;14.30;66.90
2783;DHT22;1399;47.072;15.452;2023-04-24T02:29:25;14.30;66.90
2783;DHT22;1399;47.072;15.452;2023-04-24T02:31:51;14.30;67.70
2783;DHT22;1399;47.072;15.452;2023-04-24T02:34:17;14.30;66.80
2783;DHT22;1399;47.072;15.452;2023-04-24T02:36:42;14.30;66.70
2783;DHT22;1399;47.072;15.452;2023-04-24T02:39:08;14.30;66.70
2783;DHT22;1399;47.072;15.452;2023-04-24T02:41:34;14.30;66.60
2783;DHT22;1399;47.072;15.452;2023-04-24T02:43:59;14.30;66.50
2783;DHT22;1399;47.072;15.452;2023-04-24T02:46:25;14.30;66.60
2783;DHT22;1399;47.072;15.452;2023-04-24T02:48:51;14.30;66.60
2783;DHT22;1399;47.072;15.452;2023-04-24T02:51:17;14.30;66.50
2783;DHT22;1399;47.072;15.452;2023-04-24T02:53:42;14.30;66.50
2783;DHT22;1399;47.072;15.452;2023-04-24T02:56:08;14.30;66.60
2783;DHT22;1399;47.072;15.452;2023-04-24T02:58:34;14.20;66.50
2783;DHT22;1399;47.072;15.452;2023-04-24T03:01:01;14.20;66.40
2783;DHT22;1399;47.072;15.452;2023-04-24T03:03:26;14.20;66.50
2783;DHT22;1399;47.072;15.452;2023-04-24T03:05:52;14.20;66.40
2783;DHT22;1399;47.072;15.452;2023-04-24T03:08:18;14.20;66.40
2783;DHT22;1399;47.072;15.452;2023-04-24T03:10:44;14.20;66.40
2783;DHT22;1399;47.072;15.452;2023-04-24T03:13:09;14.20;66.40
2783;DHT22;1399;47.072;15.452;2023-04-24T03:15:35;14.20;66.30
2783;DHT22;1399;47.072;15.452;2023-04-24T03:18:01;14.20;66.30
2783;DHT22;1399;47.072;15.452;2023-04-24T03:20:28;14.20;66.30
2783;DHT22;1399;47.072;15.452;2023-04-24T03:22:53;14.10;66.20
2783;DHT22;1399;47.072;15.452;2023-04-24T03:25:19;14.20;66.30
2783;DHT22;1399;47.072;15.452;2023-04-24T03:27:45;14.10;66.30
2783;DHT22;1399;47.072;15.452;2023-04-24T03:30:11;14.10;66.30
2783;DHT22;1399;47.072;15.452;2023-04-24T03:32:37;14.10;66.40
2783;DHT22;1399;47.072;15.452;2023-04-24T03:35:06;14.10;66.40
2783;DHT22;1399;47.072;15.452;2023-04-24T03:37:32;14.10;66.40
2783;DHT22;1399;47.072;15.452;2023-04-24T03:39:58;14.10;66.40
2783;DHT22;1399;47.072;15.452;2023-04-24T03:42:24;14.10;66.30
2783;DHT22;1399;47.072;15.452;2023-04-24T03:44:49;14.10;66.30
2783;DHT22;1399;47.072;15.452;2023-04-24T03:47:15;14.10;66.30
2783;DHT22;1399;47.072;15.452;2023-04-24T03:49:41;14.00;66.10
2783;DHT22;1399;47.072;15.452;2023-04-24T03:52:06;14.10;66.30
2783;DHT22;1399;47.072;15.452;2023-04-24T03:54:32;14.10;66.30
2783;DHT22;1399;47.072;15.452;2023-04-24T03:56:58;14.00;66.10
2783;DHT22;1399;47.072;15.452;2023-04-24T03:59:24;14.00;66.10
2783;DHT22;1399;47.072;15.452;2023-04-24T04:01:50;14.00;66.00
2783;DHT22;1399;47.072;15.452;2023-04-24T04:04:15;14.00;66.00
2783;DHT22;1399;47.072;15.452;2023-04-24T04:06:41;14.00;66.00
2783;DHT22;1399;47.072;15.452;2023-04-24T04:09:26;14.00;65.90
2783;DHT22;1399;47.072;15.452;2023-04-24T04:11:52;14.00;65.90
2783;DHT22;1399;47.072;15.452;2023-04-24T04:14:18;14.00;65.80
2783;DHT22;1399;47.072;15.452;2023-04-24T04:16:44;14.00;65.80
2783;DHT22;1399;47.072;15.452;2023-04-24T04:19:10;14.00;65.70
2783;DHT22;1399;47.072;15.452;2023-04-24T04:21:35;14.00;65.70
2783;DHT22;1399;47.072;15.452;2023-04-24T04:24:01;14.00;65.60
2783;DHT22;1399;47.072;15.452;2023-04-24T04:26:27;14.10;65.70
2783;DHT22;1399;47.072;15.452;2023-04-24T04:28:52;14.00;65.60
2783;DHT22;1399;47.072;15.452;2023-04-24T04:31:20;14.10;65.60
2783;DHT22;1399;47.072;15.452;2023-04-24T04:33:46;14.10;65.50
2783;DHT22;1399;47.072;15.452;2023-04-24T04:36:12;14.20;65.50
2783;DHT22;1399;47.072;15.452;2023-04-24T04:38:37;14.20;65.40
2783;DHT22;1399;47.072;15.452;2023-04-24T04:41:03;14.20;65.30
2783;DHT22;1399;47.072;15.452;2023-04-24T04:43:29;14.20;66.10
2783;DHT22;1399;47.072;15.452;2023-04-24T04:45:57;14.30;65.10
2783;DHT22;1399;47.072;15.452;2023-04-24T04:48:23;14.30;65.00
2783;DHT22;1399;47.072;15.452;2023-04-24T04:50:49;14.30;64.90
2783;DHT22;1399;47.072;15.452;2023-04-24T04:53:14;14.40;64.90
2783;DHT22;1399;47.072;15.452;2023-04-24T04:55:40;14.40;64.80
2783;DHT22;1399;47.072;15.452;2023-04-24T04:58:06;14.40;64.70
2783;DHT22;1399;47.072;15.452;2023-04-24T05:00:32;14.40;64.70
2783;DHT22;1399;47.072;15.452;2023-04-24T05:03:01;14.50;64.70
2783;DHT22;1399;47.072;15.452;2023-04-24T05:05:27;14.50;64.60
2783;DHT22;1399;47.072;15.452;2023-04-24T05:07:53;14.50;64.50
2783;DHT22;1399;47.072;15.452;2023-04-24T05:10:19;14.60;64.60
2783;DHT22;1399;47.072;15.452;2023-04-24T05:12:45;14.60;64.60
2783;DHT22;1399;47.072;15.452;2023-04-24T05:15:10;14.60;64.50
2783;DHT22;1399;47.072;15.452;2023-04-24T05:17:36;14.70;64.60
2783;DHT22;1399;47.072;15.452;2023-04-24T05:20:03;14.70;64.60
2783;DHT22;1399;47.072;15.452;2023-04-24T05:22:32;14.70;64.40
2783;DHT22;1399;47.072;15.452;2023-04-24T05:24:58;14.80;64.40
2783;DHT22;1399;47.072;15.452;2023-04-24T05:27:24;14.80;64.40
2783;DHT22;1399;47.072;15.452;2023-04-24T05:29:50;14.80;64.40
2783;DHT22;1399;47.072;15.452;2023-04-24T05:32:16;14.80;64.40
2783;DHT22;1399;47.072;15.452;2023-04-24T05:34:42;14.80;64.50
2783;DHT22;1399;47.072;15.452;2023-04-24T05:37:07;14.80;64.60
2783;DHT22;1399;47.072;15.452;2023-04-24T05:39:35;14.90;64.80
2783;DHT22;1399;47.072;15.452;2023-04-24T05:42:02;14.80;65.60
2783;DHT22;1399;47.072;15.452;2023-04-24T05:44:28;14.90;64.80
2783;DHT22;1399;47.072;15.452;2023-04-24T05:46:54;14.90;64.90
2783;DHT22;1399;47.072;15.452;2023-04-24T05:49:21;14.90;64.90
2783;DHT22;1399;47.072;15.452;2023-04-24T05:51:47;14.90;65.10
2783;DHT22;1399;47.072;15.452;2023-04-24T05:54:12;14.90;65.20
2783;DHT22;1399;47.072;15.452;2023-04-24T05:56:39;14.90;65.20
2783;DHT22;1399;47.072;15.452;2023-04-24T05:59:05;14.90;66.10
2783;DHT22;1399;47.072;15.452;2023-04-24T06:01:30;15.00;65.30
2783;DHT22;1399;47.072;15.452;2023-04-24T06:03:57;15.00;65.30
2783;DHT22;1399;47.072;15.452;2023-04-24T06:06:23;15.00;65.20
2783;DHT22;1399;47.072;15.452;2023-04-24T06:08:49;15.00;65.20
2783;DHT22;1399;47.072;15.452;2023-04-24T06:11:15;15.10;65.20
2783;DHT22;1399;47.072;15.452;2023-04-24T06:13:41;15.10;65.30
2783;DHT22;1399;47.072;15.452;2023-04-24T06:16:07;15.20;65.40
2783;DHT22;1399;47.072;15.452;2023-04-24T06:18:33;15.20;65.20
2783;DHT22;1399;47.072;15.452;2023-04-24T06:20:59;15.30;65.20
2783;DHT22;1399;47.072;15.452;2023-04-24T06:23:24;15.30;65.20
2783;DHT22;1399;47.072;15.452;2023-04-24T06:25:51;15.50;65.10
2783;DHT22;1399;47.072;15.452;2023-04-24T06:28:16;15.50;64.70
2783;DHT22;1399;47.072;15.452;2023-04-24T06:30:42;15.70;64.70
2783;DHT22;1399;47.072;15.452;2023-04-24T06:33:08;15.80;64.40
2783;DHT22;1399;47.072;15.452;2023-04-24T06:35:34;15.90;64.10
2783;DHT22;1399;47.072;15.452;2023-04-24T06:38:00;16.10;63.80
2783;DHT22;1399;47.072;15.452;2023-04-24T06:40:26;16.20;63.30
2783;DHT22;1399;47.072;15.452;2023-04-24T06:42:52;16.30;62.80
2783;DHT22;1399;47.072;15.452;2023-04-24T06:45:18;16.50;62.40
2783;DHT22;1399;47.072;15.452;2023-04-24T06:47:44;16.60;61.70
2783;DHT22;1399;47.072;15.452;2023-04-24T06:50:10;16.80;61.20
2783;DHT22;1399;47.072;15.452;2023-04-24T06:52:36;17.00;60.60
2783;DHT22;1399;47.072;15.452;2023-04-24T06:55:03;17.10;60.10
2783;DHT22;1399;47.072;15.452;2023-04-24T06:57:29;17.10;59.90
2783;DHT22;1399;47.072;15.452;2023-04-24T06:59:55;17.10;59.80
2783;DHT22;1399;47.072;15.452;2023-04-24T07:02:21;17.10;60.00
2783;DHT22;1399;47.072;15.452;2023-04-24T07:04:46;17.00;59.90
2783;DHT22;1399;47.072;15.452;2023-04-24T07:07:13;17.00;60.20
2783;DHT22;1399;47.072;15.452;2023-04-24T07:09:40;17.00;60.40
2783;DHT22;1399;47.072;15.452;2023-04-24T07:12:10;16.90;60.50
2783;DHT22;1399;47.072;15.452;2023-04-24T07:14:36;16.90;60.70
2783;DHT22;1399;47.072;15.452;2023-04-24T07:17:03;16.90;60.90
2783;DHT22;1399;47.072;15.452;2023-04-24T07:19:29;16.90;61.00
2783;DHT22;1399;47.072;15.452;2023-04-24T07:21:55;16.90;61.20
2783;DHT22;1399;47.072;15.452;2023-04-24T07:24:21;16.80;61.30
2783;DHT22;1399;47.072;15.452;2023-04-24T07:26:46;16.80;61.40
2783;DHT22;1399;47.072;15.452;2023-04-24T07:29:13;16.80;61.50
2783;DHT22;1399;47.072;15.452;2023-04-24T07:31:39;16.70;61.50
2783;DHT22;1399;47.072;15.452;2023-04-24T07:34:06;16.70;61.70
2783;DHT22;1399;47.072;15.452;2023-04-24T07:36:33;16.70;61.90
2783;DHT22;1399;47.072;15.452;2023-04-24T07:38:59;16.70;62.20
2783;DHT22;1399;47.072;15.452;2023-04-24T07:41:24;16.60;62.40
2783;DHT22;1399;47.072;15.452;2023-04-24T07:43:50;16.60;62.80
2783;DHT22;1399;47.072;15.452;2023-04-24T07:46:16;16.60;63.80
2783;DHT22;1399;47.072;15.452;2023-04-24T07:48:42;16.60;63.30
2783;DHT22;1399;47.072;15.452;2023-04-24T07:51:08;16.60;63.40
2783;DHT22;1399;47.072;15.452;2023-04-24T07:53:36;16.50;63.50
2783;DHT22;1399;47.072;15.452;2023-04-24T07:56:02;16.50;63.80
2783;DHT22;1399;47.072;15.452;2023-04-24T07:58:27;16.50;64.10
2783;DHT22;1399;47.072;15.452;2023-04-24T08:00:53;16.50;64.10
2783;DHT22;1399;47.072;15.452;2023-04-24T08:03:19;16.50;64.40
2783;DHT22;1399;47.072;15.452;2023-04-24T08:05:45;16.50;64.50
2783;DHT22;1399;47.072;15.452;2023-04-24T08:08:11;16.50;64.60
2783;DHT22;1399;47.072;15.452;2023-04-24T08:10:37;16.50;64.70
2783;DHT22;1399;47.072;15.452;2023-04-24T08:13:02;16.50;64.90
2783;DHT22;1399;47.072;15.452;2023-04-24T08:15:28;16.50;65.00
2783;DHT22;1399;47.072;15.452;2023-04-24T08:17:54;16.50;65.00
2783;DHT22;1399;47.072;15.452;2023-04-24T08:20:20;16.50;65.10
2783;DHT22;1399;47.072;15.452;2023-04-24T08:22:45;16.50;65.20
2783;DHT22;1399;47.072;15.452;2023-04-24T08:25:13;16.50;65.40
2783;DHT22;1399;47.072;15.452;2023-04-24T08:27:38;16.50;65.40
2783;DHT22;1399;47.072;15.452;2023-04-24T08:30:05;16.50;65.50
2783;DHT22;1399;47.072;15.452;2023-04-24T08:32:31;16.50;65.60
2783;DHT22;1399;47.072;15.452;2023-04-24T08:34:57;16.50;65.60
2783;DHT22;1399;47.072;15.452;2023-04-24T08:37:23;16.60;65.70
2783;DHT22;1399;47.072;15.452;2023-04-24T08:39:50;16.50;65.70
2783;DHT22;1399;47.072;15.452;2023-04-24T08:42:17;16.60;65.90
2783;DHT22;1399;47.072;15.452;2023-04-24T08:44:44;16.60;65.90
2783;DHT22;1399;47.072;15.452;2023-04-24T08:47:11;16.60;66.00
2783;DHT22;1399;47.072;15.452;2023-04-24T08:49:37;16.50;66.10
2783;DHT22;1399;47.072;15.452;2023-04-24T08:52:05;16.50;66.10
2783;DHT22;1399;47.072;15.452;2023-04-24T08:54:31;16.50;66.20
2783;DHT22;1399;47.072;15.452;2023-04-24T08:57:01;16.50;66.30
2783;DHT22;1399;47.072;15.452;2023-04-24T08:59:29;16.50;66.30
2783;DHT22;1399;47.072;15.452;2023-04-24T09:01:56;16.50;66.40
2783;DHT22;1399;47.072;15.452;2023-04-24T09:04:22;16.50;66.40
2783;DHT22;1399;47.072;15.452;2023-04-24T09:06:50;16.50;66.50
2783;DHT22;1399;47.072;15.452;2023-04-24T09:09:17;16.50;66.60
2783;DHT22;1399;47.072;15.452;2023-04-24T09:11:46;16.50;66.60
2783;DHT22;1399;47.072;15.452;2023-04-24T09:14:12;16.50;66.70
2783;DHT22;1399;47.072;15.452;2023-04-24T09:16:39;16.60;66.90
2783;DHT22;1399;47.072;15.452;2023-04-24T09:19:05;16.50;66.80
2783;DHT22;1399;47.072;15.452;2023-04-24T09:21:35;16.50;66.90
2783;DHT22;1399;47.072;15.452;2023-04-24T09:24:03;16.60;67.00
2783;DHT22;1399;47.072;15.452;2023-04-24T09:26:31;16.60;67.10
2783;DHT22;1399;47.072;15.452;2023-04-24T09:28:58;16.60;67.10
2783;DHT22;1399;47.072;15.452;2023-04-24T09:31:24;16.60;67.00
2783;DHT22;1399;47.072;15.452;2023-04-24T09:33:55;16.60;67.00
2783;DHT22;1399;47.072;15.452;2023-04-24T09:36:47;16.60;66.90
2783;DHT22;1399;47.072;15.452;2023-04-24T09:39:14;16.60;67.00
2783;DHT22;1399;47.072;15.452;2023-04-24T09:41:53;16.60;66.90
2783;DHT22;1399;47.072;15.452;2023-04-24T09:44:20;16.60;66.80
2783;DHT22;1399;47.072;15.452;2023-04-24T09:46:51;16.60;66.40
2783;DHT22;1399;47.072;15.452;2023-04-24T09:49:24;16.70;66.30
2783;DHT22;1399;47.072;15.452;2023-04-24T09:51:50;16.70;66.00
2783;DHT22;1399;47.072;15.452;2023-04-24T09:54:18;16.70;65.80
2783;DHT22;1399;47.072;15.452;2023-04-24T09:56:47;16.70;65.40
2783;DHT22;1399;47.072;15.452;2023-04-24T09:59:14;16.70;65.10
2783;DHT22;1399;47.072;15.452;2023-04-24T10:01:40;16.70;64.60
2783;DHT22;1399;47.072;15.452;2023-04-24T10:04:23;16.80;64.50
2783;DHT22;1399;47.072;15.452;2023-04-24T10:06:52;16.90;64.40
2783;DHT22;1399;47.072;15.452;2023-04-24T10:09:19;17.00;64.20
2783;DHT22;1399;47.072;15.452;2023-04-24T10:11:48;17.10;64.00
2783;DHT22;1399;47.072;15.452;2023-04-24T10:14:20;17.20;63.80
2783;DHT22;1399;47.072;15.452;2023-04-24T10:16:46;17.30;63.60
2783;DHT22;1399;47.072;15.452;2023-04-24T10:19:14;17.40;63.30
2783;DHT22;1399;47.072;15.452;2023-04-24T10:21:41;17.50;62.90
2783;DHT22;1399;47.072;15.452;2023-04-24T10:24:18;17.60;62.60
2783;DHT22;1399;47.072;15.452;2023-04-24T10:26:46;17.60;62.10
2783;DHT22;1399;47.072;15.452;2023-04-24T10:29:15;17.70;61.80
2783;DHT22;1399;47.072;15.452;2023-04-24T10:31:41;17.80;61.60
2783;DHT22;1399;47.072;15.452;2023-04-24T10:34:09;17.80;61.30
2783;DHT22;1399;47.072;15.452;2023-04-24T10:36:38;17.90;61.10
2783;DHT22;1399;47.072;15.452;2023-04-24T10:39:08;17.90;60.80
2783;DHT22;1399;47.072;15.452;2023-04-24T10:41:37;18.00;60.70
2783;DHT22;1399;47.072;15.452;2023-04-24T10:44:11;18.00;60.50
2783;DHT22;1399;47.072;15.452;2023-04-24T10:46:38;18.00;60.40
2783;DHT22;1399;47.072;15.452;2023-04-24T10:49:07;18.10;60.40
2783;DHT22;1399;47.072;15.452;2023-04-24T10:51:53;18.10;60.20
2783;DHT22;1399;47.072;15.452;2023-04-24T10:54:26;18.10;60.20
2783;DHT22;1399;47.072;15.452;2023-04-24T10:56:53;18.20;60.10
2783;DHT22;1399;47.072;15.452;2023-04-24T10:59:27;18.20;60.00
2783;DHT22;1399;47.072;15.452;2023-04-24T11:01:54;18.20;59.90
2783;DHT22;1399;47.072;15.452;2023-04-24T11:04:33;18.20;59.80
2783;DHT22;1399;47.072;15.452;2023-04-24T11:07:00;18.30;59.80
2783;DHT22;1399;47.072;15.452;2023-04-24T11:09:28;18.30;59.70
2783;DHT22;1399;47.072;15.452;2023-04-24T11:12:06;18.30;59.70
2783;DHT22;1399;47.072;15.452;2023-04-24T11:14:59;18.30;59.60
2783;DHT22;1399;47.072;15.452;2023-04-24T11:17:32;18.40;59.60
2783;DHT22;1399;47.072;15.452;2023-04-24T11:20:07;18.40;59.50
2783;DHT22;1399;47.072;15.452;2023-04-24T11:22:35;18.50;59.40
2783;DHT22;1399;47.072;15.452;2023-04-24T11:25:01;18.50;59.30
2783;DHT22;1399;47.072;15.452;2023-04-24T11:27:30;18.50;59.30
2783;DHT22;1399;47.072;15.452;2023-04-24T11:32:29;18.60;59.20
2783;DHT22;1399;47.072;15.452;2023-04-24T11:35:01;18.60;59.20
2783;DHT22;1399;47.072;15.452;2023-04-24T11:37:35;18.60;59.10
2783;DHT22;1399;47.072;15.452;2023-04-24T11:40:02;18.60;59.10
2783;DHT22;1399;47.072;15.452;2023-04-24T11:42:46;18.60;59.10
2783;DHT22;1399;47.072;15.452;2023-04-24T11:45:23;18.60;59.00
2783;DHT22;1399;47.072;15.452;2023-04-24T11:47:49;18.60;59.00
2783;DHT22;1399;47.072;15.452;2023-04-24T11:50:17;18.60;59.00
2783;DHT22;1399;47.072;15.452;2023-04-24T11:52:44;18.60;59.00
2783;DHT22;1399;47.072;15.452;2023-04-24T11:57:43;18.60;59.00
2783;DHT22;1399;47.072;15.452;2023-04-24T12:00:16;18.60;58.90
2783;DHT22;1399;47.072;15.452;2023-04-24T12:02:42;18.60;58.90
2783;DHT22;1399;47.072;15.452;2023-04-24T12:05:08;18.60;58.80
2783;DHT22;1399;47.072;15.452;2023-04-24T12:07:41;18.60;58.70
2783;DHT22;1399;47.072;15.452;2023-04-24T12:10:10;18.60;58.70
2783;DHT22;1399;47.072;15.452;2023-04-24T12:12:36;18.60;58.60
2783;DHT22;1399;47.072;15.452;2023-04-24T12:15:06;18.50;58.60
2783;DHT22;1399;47.072;15.452;2023-04-24T12:17:34;18.50;58.50
2783;DHT22;1399;47.072;15.452;2023-04-24T12:20:02;18.50;58.60
2783;DHT22;1399;47.072;15.452;2023-04-24T12:22:55;18.50;59.20
2783;DHT22;1399;47.072;15.452;2023-04-24T12:25:24;18.50;58.50
2783;DHT22;1399;47.072;15.452;2023-04-24T12:30:20;18.50;58.40
2783;DHT22;1399;47.072;15.452;2023-04-24T12:32:47;18.50;58.30
2783;DHT22;1399;47.072;15.452;2023-04-24T12:35:21;18.50;58.30
2783;DHT22;1399;47.072;15.452;2023-04-24T12:37:47;18.50;58.20
2783;DHT22;1399;47.072;15.452;2023-04-24T12:40:14;18.50;58.10
2783;DHT22;1399;47.072;15.452;2023-04-24T12:42:50;18.50;58.00
2783;DHT22;1399;47.072;15.452;2023-04-24T12:45:19;18.60;57.90
2783;DHT22;1399;47.072;15.452;2023-04-24T12:47:46;18.70;57.70
2783;DHT22;1399;47.072;15.452;2023-04-24T12:50:13;18.70;57.50
2783;DHT22;1399;47.072;15.452;2023-04-24T12:52:40;18.80;57.30
2783;DHT22;1399;47.072;15.452;2023-04-24T12:55:06;18.90;57.10
2783;DHT22;1399;47.072;15.452;2023-04-24T12:57:38;18.90;56.80
2783;DHT22;1399;47.072;15.452;2023-04-24T13:00:05;19.00;56.60
2783;DHT22;1399;47.072;15.452;2023-04-24T13:02:32;19.00;56.50
2783;DHT22;1399;47.072;15.452;2023-04-24T13:04:59;19.10;56.50
2783;DHT22;1399;47.072;15.452;2023-04-24T13:07:26;19.10;56.30
2783;DHT22;1399;47.072;15.452;2023-04-24T13:09:53;19.10;56.10
2783;DHT22;1399;47.072;15.452;2023-04-24T13:12:19;19.10;56.10
2783;DHT22;1399;47.072;15.452;2023-04-24T13:14:45;19.10;55.90
2783;DHT22;1399;47.072;15.452;2023-04-24T13:17:11;19.20;55.90
2783;DHT22;1399;47.072;15.452;2023-04-24T13:19:42;19.20;55.90
2783;DHT22;1399;47.072;15.452;2023-04-24T13:22:12;19.10;55.70
2783;DHT22;1399;47.072;15.452;2023-04-24T13:24:38;19.20;55.70
2783;DHT22;1399;47.072;15.452;2023-04-24T13:27:08;19.20;55.60
2783;DHT22;1399;47.072;15.452;2023-04-24T13:29:34;19.20;55.50
2783;DHT22;1399;47.072;15.452;2023-04-24T13:32:00;19.20;56.00
2783;DHT22;1399;47.072;15.452;2023-04-24T13:34:26;19.20;55.30
2783;DHT22;1399;47.072;15.452;2023-04-24T13:36:53;19.20;55.20
2783;DHT22;1399;47.072;15.452;2023-04-24T13:39:20;19.10;55.00
2783;DHT22;1399;47.072;15.452;2023-04-24T13:41:46;19.10;54.90
2783;DHT22;1399;47.072;15.452;2023-04-24T13:44:16;19.10;54.90
2783;DHT22;1399;47.072;15.452;2023-04-24T13:46:44;19.10;54.90
2783;DHT22;1399;47.072;15.452;2023-04-24T13:49:11;19.00;54.90
2783;DHT22;1399;47.072;15.452;2023-04-24T13:51:37;19.00;55.00
2783;DHT22;1399;47.072;15.452;2023-04-24T13:54:03;19.10;55.10
2783;DHT22;1399;47.072;15.452;2023-04-24T13:56:28;19.00;55.00
2783;DHT22;1399;47.072;15.452;2023-04-24T13:58:54;19.10;55.10
2783;DHT22;1399;47.072;15.452;2023-04-24T14:01:20;19.10;55.10
2783;DHT22;1399;47.072;15.452;2023-04-24T14:03:53;19.10;55.00
2783;DHT22;1399;47.072;15.452;2023-04-24T14:06:20;19.20;55.10
2783;DHT22;1399;47.072;15.452;2023-04-24T14:08:46;19.10;55.00
2783;DHT22;1399;47.072;15.452;2023-04-24T14:11:12;19.10;55.00
2783;DHT22;1399;47.072;15.452;2023-04-24T14:13:39;19.10;55.00
2783;DHT22;1399;47.072;15.452;2023-04-24T14:16:06;19.10;55.10
2783;DHT22;1399;47.072;15.452;2023-04-24T14:18:32;19.00;55.10
2783;DHT22;1399;47.072;15.452;2023-04-24T14:20:57;19.00;55.20
2783;DHT22;1399;47.072;15.452;2023-04-24T14:23:23;19.00;55.10
2783;DHT22;1399;47.072;15.452;2023-04-24T14:25:49;18.90;55.10
2783;DHT22;1399;47.072;15.452;2023-04-24T14:28:18;18.90;55.30
2783;DHT22;1399;47.072;15.452;2023-04-24T14:30:44;18.90;56.00
2783;DHT22;1399;47.072;15.452;2023-04-24T14:33:10;18.80;55.40
2783;DHT22;1399;47.072;15.452;2023-04-24T14:35:37;18.80;55.50
2783;DHT22;1399;47.072;15.452;2023-04-24T14:38:03;18.80;55.60
2783;DHT22;1399;47.072;15.452;2023-04-24T14:40:28;18.70;55.60
2783;DHT22;1399;47.072;15.452;2023-04-24T14:42:54;18.70;55.60
2783;DHT22;1399;47.072;15.452;2023-04-24T14:45:20;18.70;55.60
2783;DHT22;1399;47.072;15.452;2023-04-24T14:47:46;18.70;55.70
2783;DHT22;1399;47.072;15.452;2023-04-24T14:50:12;18.70;55.70
2783;DHT22;1399;47.072;15.452;2023-04-24T14:52:38;18.60;55.70
2783;DHT22;1399;47.072;15.452;2023-04-24T14:55:05;18.60;55.80
2783;DHT22;1399;47.072;15.452;2023-04-24T14:57:32;18.50;55.80
2783;DHT22;1399;47.072;15.452;2023-04-24T14:59:58;18.50;55.90
2783;DHT22;1399;47.072;15.452;2023-04-24T15:02:24;18.50;56.10
2783;DHT22;1399;47.072;15.452;2023-04-24T15:04:49;18.40;56.10
2783;DHT22;1399;47.072;15.452;2023-04-24T15:07:15;18.40;56.30
2783;DHT22;1399;47.072;15.452;2023-04-24T15:09:41;18.30;56.30
2783;DHT22;1399;47.072;15.452;2023-04-24T15:12:06;18.30;56.50
2783;DHT22;1399;47.072;15.452;2023-04-24T15:14:32;18.30;56.60
2783;DHT22;1399;47.072;15.452;2023-04-24T15:16:58;18.20;56.60
2783;DHT22;1399;47.072;15.452;2023-04-24T15:19:23;18.20;56.70
2783;DHT22;1399;47.072;15.452;2023-04-24T15:21:49;18.20;56.90
2783;DHT22;1399;47.072;15.452;2023-04-24T15:24:15;18.10;57.00
2783;DHT22;1399;47.072;15.452;2023-04-24T15:26:40;18.10;57.20
2783;DHT22;1399;47.072;15.452;2023-04-24T15:29:06;18.10;57.30
2783;DHT22;1399;47.072;15.452;2023-04-24T15:31:32;18.10;57.40
2783;DHT22;1399;47.072;15.452;2023-04-24T15:33:57;18.10;57.50
2783;DHT22;1399;47.072;15.452;2023-04-24T15:36:23;18.00;57.60
2783;DHT22;1399;47.072;15.452;2023-04-24T15:38:49;18.00;57.80
2783;DHT22;1399;47.072;15.452;2023-04-24T15:41:15;18.00;57.80
2783;DHT22;1399;47.072;15.452;2023-04-24T15:43:41;17.90;57.90
2783;DHT22;1399;47.072;15.452;2023-04-24T15:46:07;17.90;58.00
2783;DHT22;1399;47.072;15.452;2023-04-24T15:48:34;17.90;58.20
2783;DHT22;1399;47.072;15.452;2023-04-24T15:51:00;17.90;58.30